createdAt,value
2019-02-17T00:01:25.218Z,69.98
2019-02-17T00:03:53.565Z,70.00
2019-02-17T00:06:21.876Z,70.27
2019-02-17T00:08:50.223Z,69.72
2019-02-17T00:11:18.565Z,70.56
2019-02-17T00:13:46.929Z,70.17
2019-02-17T00:16:15.380Z,70.26
2019-02-17T00:18:43.701Z,70.54
2019-02-17T00:21:12.503Z,70.46
2019-02-17T00:23:41.352Z,71.06
2019-02-17T00:26:09.786Z,71.37
2019-02-17T00:28:38.169Z,71.40
2019-02-17T00:31:06.527Z,71.61
2019-02-17T00:33:34.972Z,71.58
2019-02-17T00:36:03.350Z,71.53
2019-02-17T00:38:31.818Z,71.26
2019-02-17T00:41:00.101Z,71.67
2019-02-17T00:43:28.646Z,71.51
2019-02-17T00:45:57.165Z,71.54
2019-02-17T00:48:25.469Z,72.00
2019-02-17T00:50:53.835Z,71.57
2019-02-17T00:53:22.155Z,71.81
2019-02-17T00:55:50.521Z,71.89
2019-02-17T00:58:19.522Z,71.70
2019-02-17T01:00:47.957Z,71.87
2019-02-17T01:03:16.273Z,72.55
2019-02-17T01:05:44.820Z,72.34
2019-02-17T01:08:13.414Z,71.89
2019-02-17T01:10:42.613Z,71.98
2019-02-17T01:13:11.443Z,72.25
2019-02-17T01:15:39.784Z,72.20
2019-02-17T01:18:08.111Z,72.07
2019-02-17T01:20:36.519Z,72.22
2019-02-17T01:23:04.835Z,72.24
2019-02-17T01:25:33.198Z,72.51
2019-02-17T01:28:01.554Z,72.55
2019-02-17T01:30:29.930Z,72.58
2019-02-17T01:32:58.662Z,72.55
2019-02-17T01:35:26.985Z,72.50
2019-02-17T01:37:55.326Z,72.21
2019-02-17T01:40:23.685Z,72.32
2019-02-17T01:42:52.034Z,72.21
2019-02-17T01:45:20.363Z,72.60
2019-02-17T01:47:48.829Z,72.69
2019-02-17T01:50:17.372Z,72.62
2019-02-17T01:52:45.734Z,71.96
2019-02-17T01:55:15.034Z,72.73
2019-02-17T01:57:43.529Z,72.64
2019-02-17T02:00:13.811Z,72.47
2019-02-17T02:02:42.179Z,72.55
2019-02-17T02:05:11.170Z,73.38
2019-02-17T02:07:39.588Z,73.62
2019-02-17T02:10:09.334Z,72.85
2019-02-17T02:12:37.812Z,73.20
2019-02-17T02:15:07.825Z,73.07
2019-02-17T02:17:36.193Z,73.33
2019-02-17T02:20:07.879Z,73.49
2019-02-17T02:22:36.229Z,73.70
2019-02-17T02:25:06.408Z,73.75
2019-02-17T02:27:35.097Z,73.05
2019-02-17T02:30:04.609Z,73.27
2019-02-17T02:32:33.028Z,73.02
2019-02-17T02:35:01.375Z,72.81
2019-02-17T02:37:29.703Z,73.04
2019-02-17T02:39:58.048Z,72.86
2019-02-17T02:42:26.389Z,73.20
2019-02-17T02:44:54.746Z,73.46
2019-02-17T02:47:23.086Z,72.75
2019-02-17T02:49:51.436Z,72.92
2019-02-17T02:52:19.741Z,73.22
2019-02-17T02:54:48.126Z,73.42
2019-02-17T02:57:16.452Z,72.86
2019-02-17T02:59:52.216Z,73.42
2019-02-17T03:02:15.149Z,72.87
2019-02-17T03:04:43.489Z,73.47
2019-02-17T03:07:12.081Z,73.27
2019-02-17T03:09:40.426Z,73.03
2019-02-17T03:12:08.879Z,72.77
2019-02-17T03:14:37.252Z,73.27
2019-02-17T03:17:05.602Z,73.49
2019-02-17T03:19:33.957Z,73.41
2019-02-17T03:22:02.276Z,73.62
2019-02-17T03:24:30.614Z,74.07
2019-02-17T03:26:59.012Z,74.01
2019-02-17T03:29:27.473Z,73.26
2019-02-17T03:31:55.818Z,73.36
2019-02-17T03:34:24.223Z,74.13
2019-02-17T03:36:53.446Z,74.02
2019-02-17T03:39:21.827Z,74.11
2019-02-17T03:41:50.310Z,73.63
2019-02-17T03:44:18.638Z,74.17
2019-02-17T03:46:46.970Z,73.59
2019-02-17T03:49:15.291Z,74.62
2019-02-17T03:51:43.699Z,73.69
2019-02-17T03:54:12.645Z,73.47
2019-02-17T03:56:40.997Z,73.49
2019-02-17T03:59:09.327Z,73.53
2019-02-17T04:01:37.687Z,73.82
2019-02-17T04:04:06.025Z,73.56
2019-02-17T04:06:34.391Z,74.28
2019-02-17T04:09:02.804Z,74.22
2019-02-17T04:11:31.292Z,74.41
2019-02-17T04:13:59.690Z,74.36
2019-02-17T04:16:28.119Z,73.81
2019-02-17T04:18:56.449Z,74.22
2019-02-17T04:21:24.884Z,74.08
2019-02-17T04:23:53.235Z,74.48
2019-02-17T04:26:21.635Z,74.75
2019-02-17T04:28:50.786Z,74.96
2019-02-17T04:31:19.219Z,75.13
2019-02-17T04:33:47.663Z,75.30
2019-02-17T04:36:15.974Z,75.14
2019-02-17T04:38:44.527Z,75.55
2019-02-17T04:41:13.125Z,75.60
2019-02-17T04:43:41.455Z,75.31
2019-02-17T04:46:10.199Z,75.69
2019-02-17T04:48:38.575Z,74.94
2019-02-17T04:51:06.969Z,74.99
2019-02-17T04:53:35.349Z,75.48
2019-02-17T04:56:03.680Z,74.92
2019-02-17T04:58:32.100Z,75.52
2019-02-17T05:01:00.473Z,75.40
2019-02-17T05:03:30.037Z,75.64
2019-02-17T05:05:58.397Z,75.68
2019-02-17T05:08:26.744Z,76.14
2019-02-17T05:10:55.083Z,75.27
2019-02-17T05:13:23.788Z,75.25
2019-02-17T05:15:52.139Z,75.31
2019-02-17T05:18:20.462Z,75.20
2019-02-17T05:20:48.817Z,75.21
2019-02-17T05:23:17.138Z,75.29
2019-02-17T05:25:45.527Z,75.34
2019-02-17T05:28:14.058Z,74.93
2019-02-17T05:30:52.339Z,74.74
2019-02-17T05:33:13.135Z,74.51
2019-02-17T05:35:41.465Z,74.50
2019-02-17T05:38:09.927Z,74.81
2019-02-17T05:40:38.250Z,74.78
2019-02-17T05:43:06.587Z,75.67
2019-02-17T05:45:34.942Z,75.43
2019-02-17T05:48:03.427Z,75.96
2019-02-17T05:50:31.791Z,75.97
2019-02-17T05:53:00.158Z,76.08
2019-02-17T05:55:28.507Z,75.44
2019-02-17T05:57:56.839Z,74.96
2019-02-17T06:00:26.097Z,74.23
2019-02-17T06:02:54.451Z,74.89
2019-02-17T06:05:22.808Z,75.10
2019-02-17T06:07:51.155Z,75.21
2019-02-17T06:10:19.546Z,75.53
2019-02-17T06:12:48.328Z,75.65
2019-02-17T06:15:16.698Z,75.80
2019-02-17T06:17:45.015Z,74.70
2019-02-17T06:20:13.800Z,74.36
2019-02-17T06:22:42.141Z,74.70
2019-02-17T06:25:11.180Z,74.64
2019-02-17T06:27:39.521Z,74.48
2019-02-17T06:30:09.391Z,73.30
2019-02-17T06:32:37.725Z,73.06
2019-02-17T06:35:06.863Z,73.69
2019-02-17T06:37:35.190Z,74.07
2019-02-17T06:40:04.882Z,74.39
2019-02-17T06:42:33.264Z,74.63
2019-02-17T06:45:01.664Z,74.55
2019-02-17T06:47:31.024Z,74.07
2019-02-17T06:49:59.326Z,72.51
2019-02-17T06:52:27.705Z,71.49
2019-02-17T06:55:03.241Z,69.11
2019-02-17T06:57:33.579Z,67.09
2019-02-17T07:00:05.519Z,65.63
2019-02-17T07:02:33.882Z,65.33
2019-02-17T07:05:06.068Z,63.03
2019-02-17T07:07:34.485Z,63.68
2019-02-17T07:10:04.474Z,62.09
2019-02-17T07:12:32.813Z,62.55
2019-02-17T07:15:01.166Z,63.15
2019-02-17T07:17:29.533Z,62.30
2019-02-17T07:19:57.882Z,62.90
2019-02-17T07:22:26.227Z,63.34
2019-02-17T07:24:54.593Z,63.89
2019-02-17T07:27:22.991Z,62.45
2019-02-17T07:29:51.321Z,61.18
2019-02-17T07:32:19.680Z,59.28
2019-02-17T07:34:48.026Z,57.87
2019-02-17T07:37:16.367Z,56.54
2019-02-17T07:39:44.716Z,58.66
2019-02-17T07:42:13.110Z,60.42
2019-02-17T07:44:41.519Z,61.10
2019-02-17T07:47:09.896Z,61.22
2019-02-17T07:49:38.229Z,61.97
2019-02-17T07:52:06.796Z,60.83
2019-02-17T07:54:35.118Z,61.36
2019-02-17T07:57:03.505Z,60.99
2019-02-17T07:59:31.892Z,59.51
2019-02-17T08:02:00.285Z,60.07
2019-02-17T08:04:28.596Z,59.96
2019-02-17T08:06:56.974Z,59.52
2019-02-17T08:09:25.305Z,58.77
2019-02-17T08:11:53.697Z,59.10
2019-02-17T08:14:22.044Z,58.83
2019-02-17T08:16:50.413Z,58.70
2019-02-17T08:19:18.741Z,57.19
2019-02-17T08:21:47.114Z,56.72
2019-02-17T08:24:15.466Z,56.30
2019-02-17T08:26:43.829Z,56.15
2019-02-17T08:29:12.186Z,56.54
2019-02-17T08:31:40.565Z,57.25
2019-02-17T08:34:09.173Z,57.97
2019-02-17T08:36:37.552Z,58.09
2019-02-17T08:39:06.432Z,59.48
2019-02-17T08:41:34.764Z,57.67
2019-02-17T08:44:03.061Z,59.63
2019-02-17T08:46:31.437Z,60.00
2019-02-17T08:48:59.811Z,60.50
2019-02-17T08:51:28.162Z,61.36
2019-02-17T08:53:56.487Z,61.25
2019-02-17T08:56:24.984Z,59.87
2019-02-17T08:58:53.274Z,58.92
2019-02-17T09:01:21.649Z,60.19
2019-02-17T09:03:49.983Z,61.04
2019-02-17T09:06:18.340Z,59.82
2019-02-17T09:08:46.695Z,61.39
2019-02-17T09:11:15.345Z,60.22
2019-02-17T09:13:43.720Z,60.66
2019-02-17T09:16:12.057Z,60.50
2019-02-17T09:18:41.022Z,61.17
2019-02-17T09:21:09.455Z,62.10
2019-02-17T09:23:37.809Z,60.99
2019-02-17T09:26:06.173Z,60.89
2019-02-17T09:28:34.550Z,59.47
2019-02-17T09:31:03.109Z,58.81
2019-02-17T09:33:31.486Z,58.84
2019-02-17T09:35:59.877Z,58.00
2019-02-17T09:38:28.230Z,59.09
2019-02-17T09:40:56.561Z,58.65
2019-02-17T09:43:24.901Z,59.64
2019-02-17T09:45:53.450Z,59.71
2019-02-17T09:48:21.809Z,59.05
2019-02-17T09:50:50.201Z,58.76
2019-02-17T09:53:18.526Z,58.81
2019-02-17T09:55:46.992Z,58.34
2019-02-17T09:58:15.444Z,58.08
2019-02-17T10:00:43.798Z,59.80
2019-02-17T10:03:12.320Z,58.28
2019-02-17T10:05:40.722Z,57.92
2019-02-17T10:08:09.462Z,58.14
2019-02-17T10:10:37.791Z,57.71
2019-02-17T10:13:06.326Z,57.13
2019-02-17T10:15:34.713Z,56.12
2019-02-17T10:18:03.090Z,57.60
2019-02-17T10:20:31.432Z,57.95
2019-02-17T10:22:59.808Z,57.54
2019-02-17T10:25:28.134Z,56.69
2019-02-17T10:27:56.476Z,56.72
2019-02-17T10:30:24.806Z,56.88
2019-02-17T10:32:53.207Z,56.68
2019-02-17T10:35:21.526Z,56.19
2019-02-17T10:37:49.950Z,56.68
2019-02-17T10:40:19.325Z,56.48
2019-02-17T10:42:48.077Z,55.19
2019-02-17T10:45:16.497Z,54.48
2019-02-17T10:47:44.852Z,53.69
2019-02-17T10:50:13.501Z,53.48
2019-02-17T10:52:42.076Z,53.17
2019-02-17T10:55:12.245Z,53.94
2019-02-17T10:57:40.662Z,53.61
2019-02-17T11:00:14.730Z,52.38
2019-02-17T11:02:47.274Z,51.91
2019-02-17T11:05:13.655Z,52.94
2019-02-17T11:07:42.176Z,53.56
2019-02-17T11:10:11.610Z,52.88
2019-02-17T11:12:40.020Z,51.72
2019-02-17T11:15:14.685Z,51.28
2019-02-17T11:17:43.022Z,51.41
2019-02-17T11:20:11.646Z,51.93
2019-02-17T11:22:40.097Z,51.41
2019-02-17T11:25:09.573Z,51.64
2019-02-17T11:27:37.912Z,50.22
2019-02-17T11:30:11.242Z,49.96
2019-02-17T11:32:39.598Z,50.32
2019-02-17T11:35:08.810Z,49.19
2019-02-17T11:37:37.128Z,49.72
2019-02-17T11:40:07.958Z,50.24
2019-02-17T11:42:36.349Z,49.20
2019-02-17T11:45:08.932Z,49.01
2019-02-17T11:47:37.256Z,48.25
2019-02-17T11:50:07.805Z,47.85
2019-02-17T11:52:36.203Z,48.43
2019-02-17T11:55:07.481Z,48.71
2019-02-17T11:57:35.817Z,48.35
2019-02-17T12:00:09.685Z,48.60
2019-02-17T12:02:38.012Z,48.58
2019-02-17T12:05:08.668Z,48.41
2019-02-17T12:07:36.987Z,48.09
2019-02-17T12:10:08.757Z,47.69
2019-02-17T12:12:37.146Z,47.18
2019-02-17T12:15:08.999Z,46.99
2019-02-17T12:17:37.322Z,47.21
2019-02-17T12:20:16.868Z,46.17
2019-02-17T12:22:45.477Z,46.31
2019-02-17T12:25:13.929Z,46.15
2019-02-17T12:27:42.684Z,46.69
2019-02-17T12:30:11.977Z,45.91
2019-02-17T12:32:40.331Z,45.72
2019-02-17T12:35:09.665Z,45.79
2019-02-17T12:37:37.978Z,46.05
2019-02-17T12:40:09.610Z,45.87
2019-02-17T12:42:37.918Z,45.08
2019-02-17T12:45:10.815Z,45.17
2019-02-17T12:47:39.230Z,45.03
2019-02-17T12:50:10.652Z,44.61
2019-02-17T12:52:46.755Z,44.64
2019-02-17T12:55:10.282Z,44.56
2019-02-17T12:57:39.197Z,44.56
2019-02-17T13:00:12.542Z,44.79
2019-02-17T13:02:40.910Z,45.74
2019-02-17T13:05:10.270Z,45.08
2019-02-17T13:07:38.664Z,43.96
2019-02-17T13:10:09.068Z,42.00
2019-02-17T13:12:37.414Z,42.41
2019-02-17T13:15:08.336Z,44.05
2019-02-17T13:17:36.685Z,43.13
2019-02-17T13:20:09.123Z,42.55
2019-02-17T13:22:37.452Z,41.66
2019-02-17T13:25:09.112Z,40.90
2019-02-17T13:27:37.525Z,42.02
2019-02-17T13:30:11.646Z,41.33
2019-02-17T13:32:40.026Z,40.54
2019-02-17T13:35:09.146Z,40.92
2019-02-17T13:37:37.731Z,40.80
2019-02-17T13:40:09.677Z,39.83
2019-02-17T13:42:38.096Z,39.33
2019-02-17T13:45:12.181Z,39.78
2019-02-17T13:47:40.629Z,40.29
2019-02-17T13:50:12.227Z,39.11
2019-02-17T13:52:40.593Z,39.40
2019-02-17T13:55:10.365Z,40.18
2019-02-17T13:57:38.780Z,38.75
2019-02-17T14:00:11.953Z,38.92
2019-02-17T14:02:40.309Z,39.20
2019-02-17T14:05:09.581Z,38.81
2019-02-17T14:07:37.905Z,39.14
2019-02-17T14:10:09.852Z,38.12
2019-02-17T14:12:38.352Z,37.95
2019-02-17T14:15:12.795Z,38.29
2019-02-17T14:17:41.134Z,37.92
2019-02-17T14:20:10.549Z,38.14
2019-02-17T14:22:39.133Z,39.17
2019-02-17T14:25:10.998Z,37.33
2019-02-17T14:27:39.915Z,37.19
2019-02-17T14:30:12.783Z,37.20
2019-02-17T14:32:41.240Z,37.96
2019-02-17T14:35:10.227Z,37.11
2019-02-17T14:37:38.633Z,37.84
2019-02-17T14:40:09.329Z,37.52
2019-02-17T14:42:37.705Z,37.87
2019-02-17T14:45:10.632Z,37.55
2019-02-17T14:47:38.994Z,37.45
2019-02-17T14:50:08.870Z,37.71
2019-02-17T14:52:37.226Z,37.24
2019-02-17T14:55:08.283Z,37.05
2019-02-17T14:57:36.633Z,37.49
2019-02-17T15:00:10.748Z,38.23
2019-02-17T15:02:39.140Z,38.06
2019-02-17T15:05:09.418Z,38.12
2019-02-17T15:07:37.850Z,38.04
2019-02-17T15:10:10.094Z,38.04
2019-02-17T15:12:38.453Z,38.07
2019-02-17T15:15:10.033Z,38.38
2019-02-17T15:17:38.406Z,38.61
2019-02-17T15:20:09.487Z,38.85
2019-02-17T15:22:37.829Z,39.08
2019-02-17T15:25:09.174Z,38.54
2019-02-17T15:27:37.503Z,38.95
2019-02-17T15:30:10.333Z,39.24
2019-02-17T15:32:38.684Z,39.34
2019-02-17T15:35:07.450Z,38.40
2019-02-17T15:37:35.767Z,38.32
2019-02-17T15:40:07.958Z,38.82
2019-02-17T15:42:36.292Z,39.27
2019-02-17T15:45:08.647Z,40.14
2019-02-17T15:47:37.007Z,40.59
2019-02-17T15:50:08.499Z,40.53
2019-02-17T15:52:36.830Z,40.35
2019-02-17T15:55:08.554Z,40.97
2019-02-17T15:57:36.973Z,41.14
2019-02-17T16:00:08.471Z,41.13
2019-02-17T16:02:36.804Z,42.20
2019-02-17T16:05:06.749Z,43.07
2019-02-17T16:07:35.061Z,43.75
2019-02-17T16:10:08.542Z,43.20
2019-02-17T16:12:37.105Z,43.63
2019-02-17T16:15:10.780Z,43.82
2019-02-17T16:17:39.135Z,44.59
2019-02-17T16:20:10.850Z,44.53
2019-02-17T16:22:39.945Z,44.96
2019-02-17T16:25:09.775Z,45.02
2019-02-17T16:27:38.199Z,45.48
2019-02-17T16:30:10.453Z,46.00
2019-02-17T16:32:38.776Z,45.48
2019-02-17T16:35:07.770Z,45.81
2019-02-17T16:37:36.145Z,46.35
2019-02-17T16:40:06.997Z,46.67
2019-02-17T16:42:35.358Z,47.19
2019-02-17T16:45:05.509Z,47.45
2019-02-17T16:47:33.859Z,47.89
2019-02-17T16:50:02.228Z,47.32
2019-02-17T16:52:30.663Z,47.09
2019-02-17T16:54:59.063Z,47.03
2019-02-17T16:57:27.389Z,47.34
2019-02-17T16:59:55.794Z,46.86
2019-02-17T17:02:24.335Z,47.34
2019-02-17T17:04:52.715Z,47.24
2019-02-17T17:07:21.062Z,47.45
2019-02-17T17:09:49.426Z,47.38
2019-02-17T17:12:17.746Z,47.78
2019-02-17T17:14:46.120Z,49.00
2019-02-17T17:17:14.694Z,49.93
2019-02-17T17:19:43.298Z,49.48
2019-02-17T17:22:11.721Z,49.73
2019-02-17T17:24:40.346Z,49.44
2019-02-17T17:27:09.330Z,49.45
2019-02-17T17:29:37.813Z,49.82
2019-02-17T17:32:06.275Z,49.54
2019-02-17T17:34:34.754Z,50.25
2019-02-17T17:37:03.177Z,50.43
2019-02-17T17:39:31.665Z,50.81
2019-02-17T17:42:00.137Z,50.91
2019-02-17T17:44:28.765Z,51.61
2019-02-17T17:46:57.735Z,51.45
2019-02-17T17:49:26.275Z,51.82
2019-02-17T17:51:54.637Z,52.00
2019-02-17T17:54:25.697Z,52.04
2019-02-17T17:56:54.360Z,52.51
2019-02-17T17:59:22.930Z,52.45
2019-02-17T18:01:51.293Z,52.04
2019-02-17T18:04:19.673Z,52.66
2019-02-17T18:06:48.118Z,52.98
2019-02-17T18:09:16.458Z,53.71
2019-02-17T18:11:44.815Z,53.89
2019-02-17T18:14:13.898Z,54.57
2019-02-17T18:16:42.233Z,55.04
2019-02-17T18:19:10.967Z,55.13
2019-02-17T18:21:39.339Z,55.32
2019-02-17T18:24:07.645Z,55.49
2019-02-17T18:26:35.997Z,55.80
2019-02-17T18:29:04.535Z,55.87
2019-02-17T18:31:32.903Z,55.97
2019-02-17T18:34:01.249Z,56.07
2019-02-17T18:36:29.606Z,56.35
2019-02-17T18:38:57.953Z,56.42
2019-02-17T18:41:26.310Z,56.21
2019-02-17T18:43:54.661Z,56.84
2019-02-17T18:46:23.010Z,56.36
2019-02-17T18:48:51.381Z,56.50
2019-02-17T18:51:19.725Z,56.58
2019-02-17T18:53:48.145Z,57.19
2019-02-17T18:56:42.445Z,56.33
2019-02-17T18:59:11.137Z,55.22
2019-02-17T19:01:39.520Z,56.27
2019-02-17T19:04:08.042Z,56.84
2019-02-17T19:06:36.402Z,56.73
2019-02-17T19:09:06.242Z,57.81
2019-02-17T19:11:34.588Z,57.60
2019-02-17T19:14:02.909Z,57.81
2019-02-17T19:16:31.328Z,58.08
2019-02-17T19:18:59.707Z,58.96
2019-02-17T19:21:28.121Z,58.30
2019-02-17T19:23:56.482Z,58.32
2019-02-17T19:26:24.959Z,58.74
2019-02-17T19:28:53.353Z,58.66
2019-02-17T19:31:21.696Z,58.63
2019-02-17T19:33:50.126Z,59.34
2019-02-17T19:36:18.514Z,60.11
2019-02-17T19:38:47.204Z,59.74
2019-02-17T19:41:15.531Z,60.05
2019-02-17T19:43:43.912Z,59.45
2019-02-17T19:46:12.383Z,59.78
2019-02-17T19:48:40.730Z,60.04
2019-02-17T19:51:09.170Z,60.21
2019-02-17T19:53:37.529Z,60.39
2019-02-17T19:56:07.517Z,60.71
2019-02-17T19:58:36.114Z,60.49
2019-02-17T20:01:04.481Z,59.95
2019-02-17T20:03:36.138Z,60.15
2019-02-17T20:06:12.431Z,59.84
2019-02-17T20:08:41.386Z,60.44
2019-02-17T20:11:11.385Z,59.87
2019-02-17T20:13:39.905Z,60.51
2019-02-17T20:16:08.245Z,60.36
2019-02-17T20:18:37.001Z,60.71
2019-02-17T20:21:05.343Z,61.75
2019-02-17T20:23:33.886Z,61.03
2019-02-17T20:26:02.741Z,61.01
2019-02-17T20:28:40.831Z,61.60
2019-02-17T20:31:01.413Z,61.09
2019-02-17T20:33:29.731Z,61.35
2019-02-17T20:36:02.650Z,61.24
2019-02-17T20:38:28.696Z,61.45
2019-02-17T20:40:57.079Z,62.83
2019-02-17T20:43:25.407Z,62.93
2019-02-17T20:45:53.769Z,62.74
2019-02-17T20:48:22.196Z,62.63
2019-02-17T20:50:50.567Z,63.15
2019-02-17T20:53:19.003Z,62.91
2019-02-17T20:55:47.403Z,62.94
2019-02-17T20:58:15.779Z,63.89
2019-02-17T21:00:44.482Z,63.82
2019-02-17T21:03:13.351Z,64.46
2019-02-17T21:05:41.753Z,64.51
2019-02-17T21:08:11.518Z,64.47
2019-02-17T21:10:39.888Z,64.67
2019-02-17T21:13:10.708Z,65.87
2019-02-17T21:15:40.683Z,65.26
2019-02-17T21:18:09.584Z,65.76
2019-02-17T21:20:39.365Z,65.84
2019-02-17T21:23:07.773Z,65.92
2019-02-17T21:25:36.122Z,65.98
2019-02-17T21:28:04.472Z,66.06
2019-02-17T21:30:32.845Z,65.62
2019-02-17T21:33:01.219Z,66.19
2019-02-17T21:35:29.553Z,66.12
2019-02-17T21:37:57.995Z,66.13
2019-02-17T21:40:26.396Z,66.54
2019-02-17T21:42:54.761Z,65.85
2019-02-17T21:45:23.167Z,66.00
2019-02-17T21:47:51.518Z,66.63
2019-02-17T21:50:19.866Z,66.83
2019-02-17T21:52:48.249Z,66.81
2019-02-17T21:55:16.654Z,66.48
2019-02-17T21:57:45.085Z,66.77
2019-02-17T22:00:18.203Z,66.78
2019-02-17T22:02:46.624Z,66.40
2019-02-17T22:05:15.546Z,66.58
2019-02-17T22:07:44.021Z,66.44
2019-02-17T22:10:14.460Z,66.14
2019-02-17T22:12:42.768Z,66.63
2019-02-17T22:15:15.696Z,67.55
2019-02-17T22:17:44.073Z,67.27
2019-02-17T22:20:13.606Z,67.06
2019-02-17T22:22:42.042Z,66.62
2019-02-17T22:25:11.004Z,67.61
2019-02-17T22:27:39.371Z,67.74
2019-02-17T22:30:10.988Z,68.07
2019-02-17T22:32:39.371Z,67.84
2019-02-17T22:35:07.730Z,68.30
2019-02-17T22:37:36.170Z,68.26
2019-02-17T22:40:06.775Z,68.55
2019-02-17T22:42:35.094Z,68.56
2019-02-17T22:45:05.245Z,68.61
2019-02-17T22:47:33.607Z,68.63
2019-02-17T22:50:02.031Z,68.68
2019-02-17T22:52:30.726Z,68.93
2019-02-17T22:54:59.094Z,68.78
2019-02-17T22:57:27.402Z,69.75
2019-02-17T22:59:55.785Z,69.68
2019-02-17T23:02:24.210Z,69.44
2019-02-17T23:04:52.600Z,69.38
2019-02-17T23:07:20.923Z,69.63
2019-02-17T23:09:49.284Z,70.16
2019-02-17T23:12:17.668Z,70.35
2019-02-17T23:14:46.023Z,70.19
2019-02-17T23:17:14.409Z,69.89
2019-02-17T23:19:42.770Z,70.32
2019-02-17T23:22:11.466Z,70.80
2019-02-17T23:24:39.888Z,70.61
2019-02-17T23:27:08.215Z,70.62
2019-02-17T23:29:36.582Z,70.28
2019-02-17T23:32:04.902Z,70.37
2019-02-17T23:34:33.247Z,70.67
2019-02-17T23:37:04.092Z,70.75
2019-02-17T23:39:31.977Z,70.76
2019-02-17T23:42:00.337Z,70.72
2019-02-17T23:44:28.679Z,70.85
2019-02-17T23:46:57.023Z,70.81
2019-02-17T23:49:25.358Z,71.06
2019-02-17T23:51:53.694Z,70.88
2019-02-17T23:54:22.030Z,70.68
2019-02-17T23:56:50.402Z,71.17
2019-02-17T23:59:18.753Z,71.59
